sensor_id;sensor_type;location;lat;lon;timestamp;P1;durP1;ratioP1;P2;durP2;ratioP2
74660;SDS011;63191;39.566;2.654;2022-12-19T00:01:08;6.70;;;2.30;;
74660;SDS011;63191;39.566;2.654;2022-12-19T00:03:51;5.90;;;1.90;;
74660;SDS011;63191;39.566;2.654;2022-12-19T00:06:21;6.70;;;2.20;;
74660;SDS011;63191;39.566;2.654;2022-12-19T00:08:49;9.00;;;2.50;;
74660;SDS011;63191;39.566;2.654;2022-12-19T00:11:17;8.10;;;2.00;;
74660;SDS011;63191;39.566;2.654;2022-12-19T00:13:45;9.90;;;2.20;;
74660;SDS011;63191;39.566;2.654;2022-12-19T00:16:16;8.10;;;2.10;;
74660;SDS011;63191;39.566;2.654;2022-12-19T00:18:45;8.60;;;2.10;;
74660;SDS011;63191;39.566;2.654;2022-12-19T00:21:14;6.60;;;2.00;;
74660;SDS011;63191;39.566;2.654;2022-12-19T00:23:41;6.70;;;2.00;;
74660;SDS011;63191;39.566;2.654;2022-12-19T00:26:14;6.70;;;1.90;;
74660;SDS011;63191;39.566;2.654;2022-12-19T00:28:44;5.70;;;1.80;;
74660;SDS011;63191;39.566;2.654;2022-12-19T00:31:11;6.50;;;1.60;;
74660;SDS011;63191;39.566;2.654;2022-12-19T00:33:38;5.80;;;1.60;;
74660;SDS011;63191;39.566;2.654;2022-12-19T00:36:06;6.10;;;1.70;;
74660;SDS011;63191;39.566;2.654;2022-12-19T00:38:35;5.90;;;1.60;;
74660;SDS011;63191;39.566;2.654;2022-12-19T00:41:29;5.80;;;1.70;;
74660;SDS011;63191;39.566;2.654;2022-12-19T00:44:03;4.90;;;1.50;;
74660;SDS011;63191;39.566;2.654;2022-12-19T00:46:35;6.10;;;1.70;;
74660;SDS011;63191;39.566;2.654;2022-12-19T00:49:02;5.40;;;1.50;;
74660;SDS011;63191;39.566;2.654;2022-12-19T00:51:32;8.50;;;1.60;;
74660;SDS011;63191;39.566;2.654;2022-12-19T00:54:00;6.40;;;1.60;;
74660;SDS011;63191;39.566;2.654;2022-12-19T00:56:33;6.30;;;1.60;;
74660;SDS011;63191;39.566;2.654;2022-12-19T00:58:59;6.50;;;1.80;;
74660;SDS011;63191;39.566;2.654;2022-12-19T01:01:28;8.50;;;1.70;;
74660;SDS011;63191;39.566;2.654;2022-12-19T01:03:58;6.70;;;1.60;;
74660;SDS011;63191;39.566;2.654;2022-12-19T01:06:25;6.50;;;1.70;;
74660;SDS011;63191;39.566;2.654;2022-12-19T01:08:52;6.90;;;1.60;;
74660;SDS011;63191;39.566;2.654;2022-12-19T01:11:19;7.80;;;1.90;;
74660;SDS011;63191;39.566;2.654;2022-12-19T01:14:04;6.40;;;1.60;;
74660;SDS011;63191;39.566;2.654;2022-12-19T01:16:30;6.00;;;1.80;;
74660;SDS011;63191;39.566;2.654;2022-12-19T01:18:56;5.20;;;1.70;;
74660;SDS011;63191;39.566;2.654;2022-12-19T01:21:24;6.30;;;1.80;;
74660;SDS011;63191;39.566;2.654;2022-12-19T01:23:51;7.50;;;2.00;;
74660;SDS011;63191;39.566;2.654;2022-12-19T01:26:17;8.30;;;1.50;;
74660;SDS011;63191;39.566;2.654;2022-12-19T01:28:43;6.20;;;1.70;;
74660;SDS011;63191;39.566;2.654;2022-12-19T01:31:09;6.10;;;1.90;;
74660;SDS011;63191;39.566;2.654;2022-12-19T01:33:34;7.30;;;2.30;;
74660;SDS011;63191;39.566;2.654;2022-12-19T01:36:06;12.90;;;2.40;;
74660;SDS011;63191;39.566;2.654;2022-12-19T01:38:34;6.80;;;1.90;;
74660;SDS011;63191;39.566;2.654;2022-12-19T01:41:01;7.40;;;1.70;;
74660;SDS011;63191;39.566;2.654;2022-12-19T01:43:32;7.70;;;1.70;;
74660;SDS011;63191;39.566;2.654;2022-12-19T01:46:22;6.80;;;1.90;;
74660;SDS011;63191;39.566;2.654;2022-12-19T01:48:51;6.50;;;1.70;;
74660;SDS011;63191;39.566;2.654;2022-12-19T01:51:21;8.00;;;1.90;;
74660;SDS011;63191;39.566;2.654;2022-12-19T01:53:56;6.00;;;2.00;;
74660;SDS011;63191;39.566;2.654;2022-12-19T01:56:27;6.50;;;1.70;;
74660;SDS011;63191;39.566;2.654;2022-12-19T01:58:57;7.20;;;1.90;;
74660;SDS011;63191;39.566;2.654;2022-12-19T02:01:25;7.50;;;2.10;;
74660;SDS011;63191;39.566;2.654;2022-12-19T02:03:52;6.90;;;2.00;;
74660;SDS011;63191;39.566;2.654;2022-12-19T02:06:20;5.20;;;1.80;;
74660;SDS011;63191;39.566;2.654;2022-12-19T02:08:47;10.20;;;3.30;;
74660;SDS011;63191;39.566;2.654;2022-12-19T02:11:13;5.50;;;1.80;;
74660;SDS011;63191;39.566;2.654;2022-12-19T02:13:40;7.20;;;1.80;;
74660;SDS011;63191;39.566;2.654;2022-12-19T02:36:47;8.40;;;2.10;;
74660;SDS011;63191;39.566;2.654;2022-12-19T02:39:19;6.10;;;1.90;;
74660;SDS011;63191;39.566;2.654;2022-12-19T02:41:57;5.90;;;1.50;;
74660;SDS011;63191;39.566;2.654;2022-12-19T02:44:35;6.60;;;1.90;;
74660;SDS011;63191;39.566;2.654;2022-12-19T02:47:04;5.30;;;1.90;;
74660;SDS011;63191;39.566;2.654;2022-12-19T02:49:33;7.90;;;1.80;;
74660;SDS011;63191;39.566;2.654;2022-12-19T02:55:11;6.20;;;1.50;;
74660;SDS011;63191;39.566;2.654;2022-12-19T03:12:49;5.80;;;1.40;;
74660;SDS011;63191;39.566;2.654;2022-12-19T03:15:19;6.70;;;1.50;;
74660;SDS011;63191;39.566;2.654;2022-12-19T03:17:45;6.00;;;1.40;;
74660;SDS011;63191;39.566;2.654;2022-12-19T03:20:27;7.40;;;1.50;;
74660;SDS011;63191;39.566;2.654;2022-12-19T03:23:00;5.90;;;1.40;;
74660;SDS011;63191;39.566;2.654;2022-12-19T03:25:28;7.30;;;1.30;;
74660;SDS011;63191;39.566;2.654;2022-12-19T03:28:00;5.80;;;1.10;;
74660;SDS011;63191;39.566;2.654;2022-12-19T03:30:31;5.40;;;1.00;;
74660;SDS011;63191;39.566;2.654;2022-12-19T03:32:58;6.90;;;1.50;;
74660;SDS011;63191;39.566;2.654;2022-12-19T03:35:27;9.80;;;2.40;;
74660;SDS011;63191;39.566;2.654;2022-12-19T03:37:56;5.40;;;1.40;;
74660;SDS011;63191;39.566;2.654;2022-12-19T03:40:26;13.70;;;1.40;;
74660;SDS011;63191;39.566;2.654;2022-12-19T03:42:58;7.70;;;1.50;;
74660;SDS011;63191;39.566;2.654;2022-12-19T03:48:46;4.80;;;1.00;;
74660;SDS011;63191;39.566;2.654;2022-12-19T03:51:45;4.70;;;1.00;;
74660;SDS011;63191;39.566;2.654;2022-12-19T03:54:21;9.10;;;1.60;;
74660;SDS011;63191;39.566;2.654;2022-12-19T03:57:00;6.70;;;1.70;;
74660;SDS011;63191;39.566;2.654;2022-12-19T03:59:50;5.90;;;1.50;;
74660;SDS011;63191;39.566;2.654;2022-12-19T04:02:21;6.70;;;1.00;;
74660;SDS011;63191;39.566;2.654;2022-12-19T04:04:52;7.60;;;1.20;;
74660;SDS011;63191;39.566;2.654;2022-12-19T04:07:21;7.20;;;1.40;;
74660;SDS011;63191;39.566;2.654;2022-12-19T04:09:48;6.80;;;1.30;;
74660;SDS011;63191;39.566;2.654;2022-12-19T04:12:24;8.30;;;1.50;;
74660;SDS011;63191;39.566;2.654;2022-12-19T04:14:55;8.80;;;2.30;;
74660;SDS011;63191;39.566;2.654;2022-12-19T04:20:05;9.10;;;1.40;;
74660;SDS011;63191;39.566;2.654;2022-12-19T04:22:37;5.80;;;1.40;;
74660;SDS011;63191;39.566;2.654;2022-12-19T04:25:09;6.00;;;1.20;;
74660;SDS011;63191;39.566;2.654;2022-12-19T04:27:49;6.20;;;1.30;;
74660;SDS011;63191;39.566;2.654;2022-12-19T04:30:18;6.80;;;1.60;;
74660;SDS011;63191;39.566;2.654;2022-12-19T04:32:46;5.50;;;1.10;;
74660;SDS011;63191;39.566;2.654;2022-12-19T04:35:14;5.00;;;1.10;;
74660;SDS011;63191;39.566;2.654;2022-12-19T04:37:40;7.20;;;1.40;;
74660;SDS011;63191;39.566;2.654;2022-12-19T04:40:08;8.90;;;1.50;;
74660;SDS011;63191;39.566;2.654;2022-12-19T04:42:35;11.30;;;1.60;;
74660;SDS011;63191;39.566;2.654;2022-12-19T04:45:03;7.10;;;1.10;;
74660;SDS011;63191;39.566;2.654;2022-12-19T04:47:30;5.60;;;1.20;;
74660;SDS011;63191;39.566;2.654;2022-12-19T04:49:55;6.00;;;1.70;;
74660;SDS011;63191;39.566;2.654;2022-12-19T04:52:21;8.30;;;2.10;;
74660;SDS011;63191;39.566;2.654;2022-12-19T04:54:47;7.40;;;1.70;;
74660;SDS011;63191;39.566;2.654;2022-12-19T04:57:13;6.50;;;1.30;;
74660;SDS011;63191;39.566;2.654;2022-12-19T04:59:38;7.90;;;1.60;;
74660;SDS011;63191;39.566;2.654;2022-12-19T05:02:05;6.00;;;1.20;;
74660;SDS011;63191;39.566;2.654;2022-12-19T05:04:31;7.10;;;1.50;;
74660;SDS011;63191;39.566;2.654;2022-12-19T05:06:57;4.80;;;1.10;;
74660;SDS011;63191;39.566;2.654;2022-12-19T05:09:23;8.10;;;1.40;;
74660;SDS011;63191;39.566;2.654;2022-12-19T05:11:48;7.20;;;1.50;;
74660;SDS011;63191;39.566;2.654;2022-12-19T05:14:14;7.70;;;1.70;;
74660;SDS011;63191;39.566;2.654;2022-12-19T05:16:41;6.10;;;1.30;;
74660;SDS011;63191;39.566;2.654;2022-12-19T05:19:07;7.70;;;1.40;;
74660;SDS011;63191;39.566;2.654;2022-12-19T05:21:32;8.90;;;1.90;;
74660;SDS011;63191;39.566;2.654;2022-12-19T05:23:58;8.20;;;1.40;;
74660;SDS011;63191;39.566;2.654;2022-12-19T05:26:24;11.30;;;2.70;;
74660;SDS011;63191;39.566;2.654;2022-12-19T05:28:50;7.40;;;1.80;;
74660;SDS011;63191;39.566;2.654;2022-12-19T05:31:18;6.00;;;1.70;;
74660;SDS011;63191;39.566;2.654;2022-12-19T05:33:45;9.70;;;3.40;;
74660;SDS011;63191;39.566;2.654;2022-12-19T05:36:12;8.80;;;1.90;;
74660;SDS011;63191;39.566;2.654;2022-12-19T05:38:40;7.30;;;1.70;;
74660;SDS011;63191;39.566;2.654;2022-12-19T05:41:17;10.70;;;3.90;;
74660;SDS011;63191;39.566;2.654;2022-12-19T05:43:51;9.60;;;2.80;;
74660;SDS011;63191;39.566;2.654;2022-12-19T05:46:18;7.40;;;2.60;;
74660;SDS011;63191;39.566;2.654;2022-12-19T05:48:44;7.80;;;2.30;;
74660;SDS011;63191;39.566;2.654;2022-12-19T05:51:12;7.20;;;1.50;;
74660;SDS011;63191;39.566;2.654;2022-12-19T05:53:38;7.50;;;1.80;;
74660;SDS011;63191;39.566;2.654;2022-12-19T05:56:07;7.60;;;2.10;;
74660;SDS011;63191;39.566;2.654;2022-12-19T05:58:35;9.90;;;1.40;;
74660;SDS011;63191;39.566;2.654;2022-12-19T06:03:52;6.50;;;1.70;;
74660;SDS011;63191;39.566;2.654;2022-12-19T06:06:24;5.80;;;1.40;;
74660;SDS011;63191;39.566;2.654;2022-12-19T06:08:54;6.50;;;1.40;;
74660;SDS011;63191;39.566;2.654;2022-12-19T06:11:22;10.40;;;2.80;;
74660;SDS011;63191;39.566;2.654;2022-12-19T06:13:48;8.40;;;1.90;;
74660;SDS011;63191;39.566;2.654;2022-12-19T06:16:16;10.90;;;2.20;;
74660;SDS011;63191;39.566;2.654;2022-12-19T06:18:44;9.80;;;1.70;;
74660;SDS011;63191;39.566;2.654;2022-12-19T06:21:15;7.70;;;1.50;;
74660;SDS011;63191;39.566;2.654;2022-12-19T06:23:45;7.40;;;1.40;;
74660;SDS011;63191;39.566;2.654;2022-12-19T06:26:15;5.80;;;1.50;;
74660;SDS011;63191;39.566;2.654;2022-12-19T06:28:42;9.70;;;2.30;;
74660;SDS011;63191;39.566;2.654;2022-12-19T06:31:11;7.50;;;1.70;;
74660;SDS011;63191;39.566;2.654;2022-12-19T06:33:37;9.60;;;2.20;;
74660;SDS011;63191;39.566;2.654;2022-12-19T06:36:07;9.80;;;2.50;;
74660;SDS011;63191;39.566;2.654;2022-12-19T06:38:36;10.20;;;2.40;;
74660;SDS011;63191;39.566;2.654;2022-12-19T06:41:03;10.90;;;3.90;;
74660;SDS011;63191;39.566;2.654;2022-12-19T06:43:47;20.30;;;6.20;;
74660;SDS011;63191;39.566;2.654;2022-12-19T06:46:15;12.80;;;3.00;;
74660;SDS011;63191;39.566;2.654;2022-12-19T06:48:40;9.70;;;1.90;;
74660;SDS011;63191;39.566;2.654;2022-12-19T06:51:06;10.00;;;3.00;;
74660;SDS011;63191;39.566;2.654;2022-12-19T06:53:32;12.10;;;4.30;;
74660;SDS011;63191;39.566;2.654;2022-12-19T06:55:58;23.00;;;8.70;;
74660;SDS011;63191;39.566;2.654;2022-12-19T06:58:25;12.70;;;3.80;;
74660;SDS011;63191;39.566;2.654;2022-12-19T07:00:51;8.20;;;2.20;;
74660;SDS011;63191;39.566;2.654;2022-12-19T07:03:27;12.40;;;2.90;;
74660;SDS011;63191;39.566;2.654;2022-12-19T07:06:06;9.20;;;2.40;;
74660;SDS011;63191;39.566;2.654;2022-12-19T07:08:32;11.40;;;2.60;;
74660;SDS011;63191;39.566;2.654;2022-12-19T07:10:59;7.20;;;2.10;;
74660;SDS011;63191;39.566;2.654;2022-12-19T07:13:25;8.10;;;2.50;;
74660;SDS011;63191;39.566;2.654;2022-12-19T07:15:53;8.60;;;2.40;;
74660;SDS011;63191;39.566;2.654;2022-12-19T07:18:21;12.30;;;3.40;;
74660;SDS011;63191;39.566;2.654;2022-12-19T07:20:47;10.90;;;2.20;;
74660;SDS011;63191;39.566;2.654;2022-12-19T07:23:17;9.90;;;2.70;;
74660;SDS011;63191;39.566;2.654;2022-12-19T07:25:45;10.50;;;2.80;;
74660;SDS011;63191;39.566;2.654;2022-12-19T07:28:11;10.60;;;3.20;;
74660;SDS011;63191;39.566;2.654;2022-12-19T07:30:37;9.60;;;2.90;;
74660;SDS011;63191;39.566;2.654;2022-12-19T07:33:03;13.20;;;3.10;;
74660;SDS011;63191;39.566;2.654;2022-12-19T07:35:28;9.00;;;2.80;;
74660;SDS011;63191;39.566;2.654;2022-12-19T07:38:00;12.00;;;3.10;;
74660;SDS011;63191;39.566;2.654;2022-12-19T07:40:29;12.50;;;3.00;;
74660;SDS011;63191;39.566;2.654;2022-12-19T07:42:58;13.50;;;3.80;;
74660;SDS011;63191;39.566;2.654;2022-12-19T07:45:25;11.40;;;2.50;;
74660;SDS011;63191;39.566;2.654;2022-12-19T07:47:53;11.40;;;2.80;;
74660;SDS011;63191;39.566;2.654;2022-12-19T07:50:19;13.50;;;4.60;;
74660;SDS011;63191;39.566;2.654;2022-12-19T07:52:45;18.70;;;6.90;;
74660;SDS011;63191;39.566;2.654;2022-12-19T07:55:11;43.30;;;21.90;;
74660;SDS011;63191;39.566;2.654;2022-12-19T07:57:36;27.30;;;11.20;;
74660;SDS011;63191;39.566;2.654;2022-12-19T08:00:03;15.30;;;7.20;;
74660;SDS011;63191;39.566;2.654;2022-12-19T08:02:29;11.10;;;3.70;;
74660;SDS011;63191;39.566;2.654;2022-12-19T08:04:55;12.60;;;5.10;;
74660;SDS011;63191;39.566;2.654;2022-12-19T08:07:21;12.90;;;5.30;;
74660;SDS011;63191;39.566;2.654;2022-12-19T08:09:47;18.20;;;6.40;;
74660;SDS011;63191;39.566;2.654;2022-12-19T08:12:13;15.60;;;4.70;;
74660;SDS011;63191;39.566;2.654;2022-12-19T08:14:39;19.90;;;4.80;;
74660;SDS011;63191;39.566;2.654;2022-12-19T08:17:04;20.00;;;4.40;;
74660;SDS011;63191;39.566;2.654;2022-12-19T08:19:30;15.20;;;4.60;;
74660;SDS011;63191;39.566;2.654;2022-12-19T08:21:56;18.90;;;5.40;;
74660;SDS011;63191;39.566;2.654;2022-12-19T08:24:22;13.10;;;3.40;;
74660;SDS011;63191;39.566;2.654;2022-12-19T08:26:48;9.20;;;3.50;;
74660;SDS011;63191;39.566;2.654;2022-12-19T08:29:13;15.60;;;4.00;;
74660;SDS011;63191;39.566;2.654;2022-12-19T08:31:39;14.30;;;4.50;;
74660;SDS011;63191;39.566;2.654;2022-12-19T08:34:05;18.30;;;5.00;;
74660;SDS011;63191;39.566;2.654;2022-12-19T08:36:31;12.70;;;4.90;;
74660;SDS011;63191;39.566;2.654;2022-12-19T08:38:57;12.50;;;4.20;;
74660;SDS011;63191;39.566;2.654;2022-12-19T08:41:22;10.40;;;3.40;;
74660;SDS011;63191;39.566;2.654;2022-12-19T08:43:50;12.20;;;3.70;;
74660;SDS011;63191;39.566;2.654;2022-12-19T08:46:18;22.70;;;5.20;;
74660;SDS011;63191;39.566;2.654;2022-12-19T08:48:44;140.90;;;16.30;;
74660;SDS011;63191;39.566;2.654;2022-12-19T08:51:12;17.50;;;3.70;;
74660;SDS011;63191;39.566;2.654;2022-12-19T08:53:41;11.50;;;3.90;;
74660;SDS011;63191;39.566;2.654;2022-12-19T08:56:11;22.70;;;4.40;;
74660;SDS011;63191;39.566;2.654;2022-12-19T08:58:41;11.50;;;3.60;;
74660;SDS011;63191;39.566;2.654;2022-12-19T09:01:10;12.30;;;3.60;;
74660;SDS011;63191;39.566;2.654;2022-12-19T09:03:41;12.10;;;3.40;;
74660;SDS011;63191;39.566;2.654;2022-12-19T09:06:08;11.40;;;3.70;;
74660;SDS011;63191;39.566;2.654;2022-12-19T09:08:36;13.80;;;4.10;;
74660;SDS011;63191;39.566;2.654;2022-12-19T09:11:05;11.50;;;3.60;;
74660;SDS011;63191;39.566;2.654;2022-12-19T09:13:34;10.30;;;3.90;;
74660;SDS011;63191;39.566;2.654;2022-12-19T09:16:14;9.30;;;3.60;;
74660;SDS011;63191;39.566;2.654;2022-12-19T09:18:40;11.90;;;4.60;;
74660;SDS011;63191;39.566;2.654;2022-12-19T09:21:09;11.90;;;4.00;;
74660;SDS011;63191;39.566;2.654;2022-12-19T09:23:35;11.10;;;4.60;;
74660;SDS011;63191;39.566;2.654;2022-12-19T09:26:03;12.60;;;5.00;;
74660;SDS011;63191;39.566;2.654;2022-12-19T09:28:29;13.00;;;6.00;;
74660;SDS011;63191;39.566;2.654;2022-12-19T09:30:58;14.10;;;7.40;;
74660;SDS011;63191;39.566;2.654;2022-12-19T09:33:28;15.50;;;7.40;;
74660;SDS011;63191;39.566;2.654;2022-12-19T09:35:55;18.80;;;10.90;;
74660;SDS011;63191;39.566;2.654;2022-12-19T09:38:23;8.10;;;4.00;;
74660;SDS011;63191;39.566;2.654;2022-12-19T09:46:31;9.90;;;4.90;;
74660;SDS011;63191;39.566;2.654;2022-12-19T09:49:24;9.00;;;4.90;;
74660;SDS011;63191;39.566;2.654;2022-12-19T09:54:52;12.00;;;7.40;;
74660;SDS011;63191;39.566;2.654;2022-12-19T10:00:13;21.30;;;18.00;;
74660;SDS011;63191;39.566;2.654;2022-12-19T10:05:29;11.50;;;8.40;;
74660;SDS011;63191;39.566;2.654;2022-12-19T10:07:58;12.10;;;6.10;;
74660;SDS011;63191;39.566;2.654;2022-12-19T10:16:16;15.50;;;7.80;;
74660;SDS011;63191;39.566;2.654;2022-12-19T10:19:11;65.60;;;10.30;;
74660;SDS011;63191;39.566;2.654;2022-12-19T10:21:50;30.00;;;7.30;;
74660;SDS011;63191;39.566;2.654;2022-12-19T10:35:59;11.70;;;5.40;;
74660;SDS011;63191;39.566;2.654;2022-12-19T10:38:49;9.30;;;4.80;;
74660;SDS011;63191;39.566;2.654;2022-12-19T10:41:27;20.10;;;5.90;;
74660;SDS011;63191;39.566;2.654;2022-12-19T10:44:02;13.60;;;5.90;;
74660;SDS011;63191;39.566;2.654;2022-12-19T10:46:45;20.20;;;6.70;;
74660;SDS011;63191;39.566;2.654;2022-12-19T10:49:39;15.60;;;4.60;;
74660;SDS011;63191;39.566;2.654;2022-12-19T10:52:08;11.10;;;4.30;;
74660;SDS011;63191;39.566;2.654;2022-12-19T10:57:27;7.30;;;3.50;;
74660;SDS011;63191;39.566;2.654;2022-12-19T11:00:04;8.20;;;3.00;;
74660;SDS011;63191;39.566;2.654;2022-12-19T11:02:40;9.10;;;4.00;;
74660;SDS011;63191;39.566;2.654;2022-12-19T11:05:26;16.20;;;5.20;;
74660;SDS011;63191;39.566;2.654;2022-12-19T11:08:15;32.40;;;6.40;;
74660;SDS011;63191;39.566;2.654;2022-12-19T11:10:54;25.10;;;4.40;;
74660;SDS011;63191;39.566;2.654;2022-12-19T11:13:26;28.30;;;5.80;;
74660;SDS011;63191;39.566;2.654;2022-12-19T11:15:56;13.50;;;5.00;;
74660;SDS011;63191;39.566;2.654;2022-12-19T11:18:24;19.60;;;5.40;;
74660;SDS011;63191;39.566;2.654;2022-12-19T11:23:56;8.20;;;4.20;;
74660;SDS011;63191;39.566;2.654;2022-12-19T11:26:49;9.00;;;4.30;;
74660;SDS011;63191;39.566;2.654;2022-12-19T11:29:52;7.00;;;4.40;;
74660;SDS011;63191;39.566;2.654;2022-12-19T11:32:38;7.80;;;4.10;;
74660;SDS011;63191;39.566;2.654;2022-12-19T11:35:26;7.00;;;4.20;;
74660;SDS011;63191;39.566;2.654;2022-12-19T11:37:59;7.10;;;3.60;;
74660;SDS011;63191;39.566;2.654;2022-12-19T11:40:43;8.00;;;3.90;;
74660;SDS011;63191;39.566;2.654;2022-12-19T11:43:23;7.20;;;3.70;;
74660;SDS011;63191;39.566;2.654;2022-12-19T11:57:20;7.30;;;3.90;;
74660;SDS011;63191;39.566;2.654;2022-12-19T11:59:45;7.90;;;3.70;;
74660;SDS011;63191;39.566;2.654;2022-12-19T12:07:57;7.80;;;4.20;;
74660;SDS011;63191;39.566;2.654;2022-12-19T12:10:33;7.10;;;3.60;;
74660;SDS011;63191;39.566;2.654;2022-12-19T12:16:14;6.80;;;3.50;;
74660;SDS011;63191;39.566;2.654;2022-12-19T12:22:10;5.60;;;3.20;;
74660;SDS011;63191;39.566;2.654;2022-12-19T12:42:37;7.20;;;4.00;;
74660;SDS011;63191;39.566;2.654;2022-12-19T12:45:37;7.40;;;3.30;;
74660;SDS011;63191;39.566;2.654;2022-12-19T12:50:53;6.10;;;2.40;;
74660;SDS011;63191;39.566;2.654;2022-12-19T12:53:23;6.90;;;2.90;;
74660;SDS011;63191;39.566;2.654;2022-12-19T12:55:54;5.80;;;1.70;;
74660;SDS011;63191;39.566;2.654;2022-12-19T12:59:01;9.70;;;2.80;;
74660;SDS011;63191;39.566;2.654;2022-12-19T13:01:35;6.70;;;2.00;;
74660;SDS011;63191;39.566;2.654;2022-12-19T13:06:59;7.60;;;2.40;;
74660;SDS011;63191;39.566;2.654;2022-12-19T13:09:30;8.10;;;2.60;;
74660;SDS011;63191;39.566;2.654;2022-12-19T13:14:48;5.10;;;1.70;;
74660;SDS011;63191;39.566;2.654;2022-12-19T13:22:44;6.70;;;1.60;;
74660;SDS011;63191;39.566;2.654;2022-12-19T13:39:35;3.90;;;1.10;;
74660;SDS011;63191;39.566;2.654;2022-12-19T13:42:15;5.30;;;1.10;;
74660;SDS011;63191;39.566;2.654;2022-12-19T13:45:11;5.30;;;1.20;;
74660;SDS011;63191;39.566;2.654;2022-12-19T13:47:42;11.00;;;2.30;;
74660;SDS011;63191;39.566;2.654;2022-12-19T13:50:35;3.60;;;1.00;;
74660;SDS011;63191;39.566;2.654;2022-12-19T13:53:17;4.80;;;1.20;;
74660;SDS011;63191;39.566;2.654;2022-12-19T13:55:45;5.00;;;0.80;;
74660;SDS011;63191;39.566;2.654;2022-12-19T13:58:22;4.60;;;0.80;;
74660;SDS011;63191;39.566;2.654;2022-12-19T14:00:52;4.00;;;1.10;;
74660;SDS011;63191;39.566;2.654;2022-12-19T14:03:36;6.80;;;1.60;;
74660;SDS011;63191;39.566;2.654;2022-12-19T14:06:28;5.50;;;1.00;;
74660;SDS011;63191;39.566;2.654;2022-12-19T14:09:05;7.50;;;1.10;;
74660;SDS011;63191;39.566;2.654;2022-12-19T14:11:41;5.70;;;1.30;;
74660;SDS011;63191;39.566;2.654;2022-12-19T14:14:15;5.20;;;0.80;;
74660;SDS011;63191;39.566;2.654;2022-12-19T14:19:43;11.40;;;1.30;;
74660;SDS011;63191;39.566;2.654;2022-12-19T14:24:39;8.70;;;1.80;;
74660;SDS011;63191;39.566;2.654;2022-12-19T14:27:12;5.80;;;1.10;;
74660;SDS011;63191;39.566;2.654;2022-12-19T14:29:44;4.90;;;1.00;;
74660;SDS011;63191;39.566;2.654;2022-12-19T14:32:13;5.50;;;0.80;;
74660;SDS011;63191;39.566;2.654;2022-12-19T14:34:41;4.20;;;0.50;;
74660;SDS011;63191;39.566;2.654;2022-12-19T14:37:32;6.60;;;2.20;;
74660;SDS011;63191;39.566;2.654;2022-12-19T14:40:18;6.30;;;0.80;;
74660;SDS011;63191;39.566;2.654;2022-12-19T14:42:49;4.40;;;1.00;;
74660;SDS011;63191;39.566;2.654;2022-12-19T14:45:40;5.30;;;1.00;;
74660;SDS011;63191;39.566;2.654;2022-12-19T14:48:32;7.70;;;0.80;;
74660;SDS011;63191;39.566;2.654;2022-12-19T14:51:14;3.90;;;0.60;;
74660;SDS011;63191;39.566;2.654;2022-12-19T14:56:48;7.40;;;1.10;;
74660;SDS011;63191;39.566;2.654;2022-12-19T14:59:35;12.20;;;1.30;;
74660;SDS011;63191;39.566;2.654;2022-12-19T15:02:29;19.30;;;2.10;;
74660;SDS011;63191;39.566;2.654;2022-12-19T15:05:12;6.70;;;1.20;;
74660;SDS011;63191;39.566;2.654;2022-12-19T15:07:44;8.90;;;1.00;;
74660;SDS011;63191;39.566;2.654;2022-12-19T15:10:17;10.30;;;1.10;;
74660;SDS011;63191;39.566;2.654;2022-12-19T15:13:39;7.20;;;1.30;;
74660;SDS011;63191;39.566;2.654;2022-12-19T15:16:00;9.00;;;1.00;;
74660;SDS011;63191;39.566;2.654;2022-12-19T15:18:39;6.60;;;1.30;;
74660;SDS011;63191;39.566;2.654;2022-12-19T15:21:09;7.70;;;1.00;;
74660;SDS011;63191;39.566;2.654;2022-12-19T15:23:37;6.00;;;0.90;;
74660;SDS011;63191;39.566;2.654;2022-12-19T15:26:06;6.90;;;1.40;;
74660;SDS011;63191;39.566;2.654;2022-12-19T15:28:45;6.80;;;1.20;;
74660;SDS011;63191;39.566;2.654;2022-12-19T15:31:40;4.60;;;0.90;;
74660;SDS011;63191;39.566;2.654;2022-12-19T15:34:25;5.90;;;1.10;;
74660;SDS011;63191;39.566;2.654;2022-12-19T15:36:55;7.70;;;0.90;;
74660;SDS011;63191;39.566;2.654;2022-12-19T15:39:23;5.60;;;0.80;;
74660;SDS011;63191;39.566;2.654;2022-12-19T15:41:51;6.90;;;0.90;;
74660;SDS011;63191;39.566;2.654;2022-12-19T15:44:37;7.70;;;1.10;;
74660;SDS011;63191;39.566;2.654;2022-12-19T15:47:10;6.10;;;0.80;;
74660;SDS011;63191;39.566;2.654;2022-12-19T15:49:46;6.60;;;0.90;;
74660;SDS011;63191;39.566;2.654;2022-12-19T15:52:17;6.10;;;1.00;;
74660;SDS011;63191;39.566;2.654;2022-12-19T15:54:45;7.90;;;1.10;;
74660;SDS011;63191;39.566;2.654;2022-12-19T15:57:31;5.90;;;0.90;;
74660;SDS011;63191;39.566;2.654;2022-12-19T16:00:06;7.40;;;1.00;;
74660;SDS011;63191;39.566;2.654;2022-12-19T16:02:38;5.70;;;0.90;;
74660;SDS011;63191;39.566;2.654;2022-12-19T16:05:04;6.80;;;1.40;;
74660;SDS011;63191;39.566;2.654;2022-12-19T16:07:30;5.80;;;1.10;;
74660;SDS011;63191;39.566;2.654;2022-12-19T16:09:56;7.20;;;1.10;;
74660;SDS011;63191;39.566;2.654;2022-12-19T16:12:28;7.40;;;1.10;;
74660;SDS011;63191;39.566;2.654;2022-12-19T16:15:01;5.60;;;1.10;;
74660;SDS011;63191;39.566;2.654;2022-12-19T16:17:30;7.50;;;1.20;;
74660;SDS011;63191;39.566;2.654;2022-12-19T16:19:57;5.60;;;0.80;;
74660;SDS011;63191;39.566;2.654;2022-12-19T16:22:28;9.50;;;1.70;;
74660;SDS011;63191;39.566;2.654;2022-12-19T16:24:54;3.80;;;0.60;;
74660;SDS011;63191;39.566;2.654;2022-12-19T16:27:26;8.40;;;1.10;;
74660;SDS011;63191;39.566;2.654;2022-12-19T16:29:53;7.60;;;1.20;;
74660;SDS011;63191;39.566;2.654;2022-12-19T16:32:20;4.70;;;0.80;;
74660;SDS011;63191;39.566;2.654;2022-12-19T16:34:49;4.70;;;1.00;;
74660;SDS011;63191;39.566;2.654;2022-12-19T16:37:15;5.00;;;1.10;;
74660;SDS011;63191;39.566;2.654;2022-12-19T16:39:43;5.90;;;0.90;;
74660;SDS011;63191;39.566;2.654;2022-12-19T16:42:13;6.30;;;1.20;;
74660;SDS011;63191;39.566;2.654;2022-12-19T16:44:41;9.50;;;1.10;;
74660;SDS011;63191;39.566;2.654;2022-12-19T16:47:13;6.30;;;1.00;;
74660;SDS011;63191;39.566;2.654;2022-12-19T16:49:40;9.70;;;1.20;;
74660;SDS011;63191;39.566;2.654;2022-12-19T16:52:06;11.50;;;1.90;;
74660;SDS011;63191;39.566;2.654;2022-12-19T16:54:32;9.90;;;1.80;;
74660;SDS011;63191;39.566;2.654;2022-12-19T16:56:58;10.30;;;1.50;;
74660;SDS011;63191;39.566;2.654;2022-12-19T16:59:37;7.00;;;1.70;;
74660;SDS011;63191;39.566;2.654;2022-12-19T17:02:29;8.90;;;1.80;;
74660;SDS011;63191;39.566;2.654;2022-12-19T17:05:01;6.80;;;1.80;;
74660;SDS011;63191;39.566;2.654;2022-12-19T17:07:31;8.00;;;1.60;;
74660;SDS011;63191;39.566;2.654;2022-12-19T17:09:57;8.30;;;1.80;;
74660;SDS011;63191;39.566;2.654;2022-12-19T17:12:25;8.20;;;1.40;;
74660;SDS011;63191;39.566;2.654;2022-12-19T17:14:53;6.90;;;1.90;;
74660;SDS011;63191;39.566;2.654;2022-12-19T17:17:19;9.80;;;2.00;;
74660;SDS011;63191;39.566;2.654;2022-12-19T17:19:44;7.80;;;2.00;;
74660;SDS011;63191;39.566;2.654;2022-12-19T17:22:15;8.90;;;2.20;;
74660;SDS011;63191;39.566;2.654;2022-12-19T17:24:46;9.70;;;2.10;;
74660;SDS011;63191;39.566;2.654;2022-12-19T17:27:13;6.90;;;2.00;;
74660;SDS011;63191;39.566;2.654;2022-12-19T17:29:38;8.50;;;2.20;;
74660;SDS011;63191;39.566;2.654;2022-12-19T17:32:05;10.40;;;2.10;;
74660;SDS011;63191;39.566;2.654;2022-12-19T17:34:33;9.10;;;2.10;;
74660;SDS011;63191;39.566;2.654;2022-12-19T17:37:02;8.80;;;2.30;;
74660;SDS011;63191;39.566;2.654;2022-12-19T17:39:31;11.00;;;3.00;;
74660;SDS011;63191;39.566;2.654;2022-12-19T17:42:01;9.60;;;2.60;;
74660;SDS011;63191;39.566;2.654;2022-12-19T17:44:35;10.00;;;3.00;;
74660;SDS011;63191;39.566;2.654;2022-12-19T17:47:01;10.60;;;2.70;;
74660;SDS011;63191;39.566;2.654;2022-12-19T17:49:30;10.20;;;2.70;;
74660;SDS011;63191;39.566;2.654;2022-12-19T17:51:58;8.10;;;2.60;;